Time;durP1;ratioP1;P1;durP2;ratioP2;P2;SDS_P1;SDS_P2;PMS_P1;PMS_P2;Temp;Humidity;BMP_temperature;BMP_pressure;BME280_temperature;BME280_humidity;BME280_pressure;Samples;Min_cycle;Max_cycle;Signal;HPM_P1;HPM_P2
2021/11/17 02:27:12;;;;;;;36.80;25.10;;;;;;;10.32;59.67;98237.44;8282801;28;20234;-66
2021/11/17 02:31:51;;;;;;;35.00;24.43;;;;;;;10.33;59.51;98240.88;8282376;28;20222;-67
2021/11/17 02:36:17;;;;;;;35.33;24.33;;;;;;;10.30;60.01;98238.38;8283029;28;20237;-66
2021/11/17 02:40:51;;;;;;;33.03;22.90;;;;;;;10.34;59.86;98232.22;8282483;28;20238;-66
2021/11/17 02:45:21;;;;;;;32.63;23.43;;;;;;;10.36;59.59;98233.00;8282025;28;20233;-66
2021/11/17 02:49:54;;;;;;;32.60;23.17;;;;;;;10.35;59.39;98229.53;8282450;28;20225;-66
2021/11/17 02:54:13;;;;;;;35.30;24.07;;;;;;;10.40;59.65;98226.78;8282537;28;20244;-66
2021/11/17 02:58:55;;;;;;;34.73;23.00;;;;;;;10.37;59.57;98232.91;8282206;28;20240;-67
2021/11/17 03:03:21;;;;;;;31.83;21.87;;;;;;;10.44;59.56;98232.69;8265653;28;20544;-67
2021/11/17 03:07:44;;;;;;;33.67;22.07;;;;;;;10.36;59.50;98245.94;8282017;28;20500;-67
2021/11/17 03:12:09;;;;;;;27.83;20.43;;;;;;;10.40;59.70;98231.97;8282081;28;20236;-66
2021/11/17 03:16:34;;;;;;;24.47;17.87;;;;;;;10.39;59.84;98235.44;8281420;28;20264;-66
2021/11/17 03:20:59;;;;;;;19.20;15.40;;;;;;;10.17;59.58;98246.63;8282046;28;20233;-66
2021/11/17 03:25:21;;;;;;;18.63;14.00;;;;;;;10.35;59.35;98244.25;8282024;28;20240;-66
2021/11/17 03:29:58;;;;;;;16.93;13.60;;;;;;;10.35;59.55;98237.31;8282048;28;20292;-66
2021/11/17 03:34:23;;;;;;;15.33;13.17;;;;;;;10.36;59.28;98239.00;8279279;28;20245;-66
2021/11/17 03:38:44;;;;;;;14.90;13.23;;;;;;;10.37;59.20;98239.84;8282053;28;20230;-66
2021/11/17 03:43:20;;;;;;;13.70;12.30;;;;;;;10.16;59.43;98236.31;8288263;28;20233;-67
2021/11/17 03:47:48;;;;;;;14.97;12.63;;;;;;;10.32;59.14;98234.03;8287632;28;20501;-66
2021/11/17 03:52:05;;;;;;;15.50;13.87;;;;;;;10.34;59.29;98227.88;8287787;28;20239;-66
2021/11/17 03:56:24;;;;;;;13.80;12.40;;;;;;;10.34;59.03;98227.03;8287429;28;20233;-67
2021/11/17 04:00:48;;;;;;;15.60;14.10;;;;;;;10.29;58.83;98234.09;8287820;28;20233;-66
2021/11/17 04:05:19;;;;;;;15.67;13.10;;;;;;;10.28;59.70;98235.84;8287610;28;20236;-66
2021/11/17 04:09:44;;;;;;;15.50;13.53;;;;;;;10.21;59.49;98241.34;8280607;28;20255;-66
2021/11/17 04:13:56;;;;;;;16.60;14.87;;;;;;;10.32;59.13;98234.88;8286958;28;20241;-66
2021/11/17 04:18:10;;;;;;;16.47;14.50;;;;;;;10.37;58.97;98237.25;8286748;28;20244;-66
2021/11/17 04:22:35;;;;;;;15.33;13.73;;;;;;;10.41;59.06;98236.22;8286758;28;20233;-66
2021/11/17 04:26:56;;;;;;;17.37;15.47;;;;;;;10.40;58.54;98231.97;8286394;28;20249;-66
2021/11/17 04:31:50;;;;;;;17.20;15.40;;;;;;;10.34;58.89;98240.81;8289069;28;20238;-66
2021/11/17 04:36:24;;;;;;;18.57;16.00;;;;;;;10.41;59.00;98244.00;8218777;28;20245;-66
2021/11/17 04:40:54;;;;;;;18.47;15.33;;;;;;;10.34;59.14;98250.34;8257709;28;20391;-66
2021/11/17 04:45:10;;;;;;;20.90;15.63;;;;;;;10.39;58.95;98244.97;8286120;28;20225;-66
2021/11/17 04:49:38;;;;;;;17.37;15.57;;;;;;;10.35;58.87;98255.44;8285835;28;20233;-66
2021/11/17 04:53:54;;;;;;;16.97;15.27;;;;;;;10.40;58.82;98246.66;8285358;28;20244;-66
2021/11/17 04:58:16;;;;;;;18.73;16.40;;;;;;;10.42;58.97;98248.28;8285821;28;20248;-66
2021/11/17 05:02:37;;;;;;;18.80;16.80;;;;;;;10.37;58.62;98245.03;8285192;28;20246;-66
2021/11/17 05:06:59;;;;;;;17.67;15.47;;;;;;;10.40;58.27;98254.44;8285568;28;20240;-66
2021/11/17 05:11:13;;;;;;;17.10;15.40;;;;;;;10.38;58.34;98257.09;8285382;28;20260;-66
2021/11/17 05:15:29;;;;;;;19.10;14.97;;;;;;;10.47;58.11;98255.84;8315032;28;20587;-66
2021/11/17 05:19:39;;;;;;;17.13;15.23;;;;;;;10.37;58.38;98257.97;8317609;28;20241;-66
2021/11/17 05:23:56;;;;;;;17.90;15.83;;;;;;;10.35;58.34;98244.25;8317769;28;20233;-66
2021/11/17 05:28:15;;;;;;;16.23;14.53;;;;;;;10.41;57.77;98250.94;8317357;28;20249;-66
2021/11/17 05:32:41;;;;;;;17.70;14.73;;;;;;;10.36;57.88;98249.38;8316603;28;20240;-66
2021/11/17 05:36:53;;;;;;;17.20;14.50;;;;;;;10.35;58.07;98257.19;8317363;28;20237;-66
2021/11/17 05:41:21;;;;;;;15.57;13.90;;;;;;;10.29;58.05;98252.22;8317191;28;20570;-66
2021/11/17 05:45:38;;;;;;;17.13;14.10;;;;;;;10.41;58.09;98248.34;8307679;28;20229;-66
2021/11/17 05:49:52;;;;;;;15.43;13.83;;;;;;;10.34;57.82;98258.09;8316349;28;20237;-66
2021/11/17 05:54:11;;;;;;;16.63;14.10;;;;;;;10.25;58.39;98259.25;8316370;28;20240;-66
2021/11/17 05:58:28;;;;;;;15.97;14.27;;;;;;;10.40;57.93;98263.03;8316032;28;20237;-66
2021/11/17 06:02:55;;;;;;;15.33;13.73;;;;;;;10.36;57.79;98272.66;8294382;28;20423;-66
2021/11/17 06:06:59;;;;;;;15.13;13.47;;;;;;;10.27;58.08;98274.75;8284238;28;20241;-66
2021/11/17 06:11:04;;;;;;;14.60;12.83;;;;;;;10.36;58.08;98271.84;8283295;28;20434;-66
2021/11/17 06:15:08;;;;;;;15.33;13.70;;;;;;;10.33;57.95;98288.31;8282648;28;20233;-67
2021/11/17 06:19:12;;;;;;;14.90;13.30;;;;;;;10.31;58.54;98303.06;8282961;28;20241;-66
2021/11/17 06:23:20;;;;;;;15.67;13.83;;;;;;;10.34;58.48;98302.13;8283065;28;20233;-66
2021/11/17 06:27:27;;;;;;;15.30;13.80;;;;;;;10.37;58.54;98296.81;8285314;28;20248;-66
2021/11/17 06:31:33;;;;;;;14.90;13.40;;;;;;;10.33;58.74;98293.47;8287128;28;20233;-66
2021/11/17 06:35:39;;;;;;;16.00;14.30;;;;;;;10.31;58.62;98300.47;8289730;28;20224;-67
2021/11/17 06:39:44;;;;;;;17.97;14.70;;;;;;;10.30;58.99;98303.06;8287408;28;20237;-66
2021/11/17 06:43:48;;;;;;;16.37;14.67;;;;;;;10.30;59.27;98310.84;8285608;28;20245;-67
2021/11/17 06:47:51;;;;;;;16.67;14.47;;;;;;;10.35;58.91;98314.97;8287855;28;20298;-67
2021/11/17 06:51:54;;;;;;;17.30;14.00;;;;;;;10.34;59.45;98318.50;8287232;28;20233;-67
2021/11/17 06:55:57;;;;;;;17.07;14.10;;;;;;;10.37;59.28;98317.50;8288116;28;20225;-67
2021/11/17 07:00:02;;;;;;;15.83;14.17;;;;;;;10.24;59.43;98316.25;8297308;28;20225;-67
2021/11/17 07:04:05;;;;;;;15.80;14.20;;;;;;;10.20;59.47;98314.69;8298554;28;20232;-66
2021/11/17 07:08:08;;;;;;;15.90;14.30;;;;;;;10.16;59.88;98319.97;8295851;28;20240;-68
2021/11/17 07:12:13;;;;;;;17.33;14.90;;;;;;;10.32;60.02;98325.47;8291035;28;20236;-67
2021/11/17 07:16:18;;;;;;;17.23;15.37;;;;;;;10.24;59.60;98329.19;8289637;28;20570;-66
2021/11/17 07:20:21;;;;;;;15.67;14.07;;;;;;;10.28;59.67;98330.78;8298817;28;20233;-66
2021/11/17 07:24:26;;;;;;;16.17;14.50;;;;;;;10.34;59.71;98348.72;8293310;28;20235;-67
2021/11/17 07:28:29;;;;;;;19.43;14.70;;;;;;;10.27;59.77;98347.22;8271529;28;20248;-66
2021/11/17 07:32:33;;;;;;;17.00;14.30;;;;;;;10.42;59.67;98343.25;8288033;28;20245;-66
2021/11/17 07:36:36;;;;;;;16.37;14.67;;;;;;;10.35;59.52;98352.97;8320060;28;20244;-66
2021/11/17 07:40:41;;;;;;;16.07;14.53;;;;;;;10.30;60.16;98350.56;8320113;28;20248;-66
2021/11/17 07:44:44;;;;;;;15.17;13.60;;;;;;;10.46;59.30;98355.19;8317200;28;20236;-66
2021/11/17 07:48:49;;;;;;;14.50;13.00;;;;;;;10.40;59.50;98352.81;8287720;28;20247;-66
2021/11/17 07:52:52;;;;;;;15.33;12.93;;;;;;;10.33;59.58;98370.31;8289621;28;20225;-66
2021/11/17 07:56:55;;;;;;;14.33;12.83;;;;;;;10.48;59.96;98366.31;8287616;28;20251;-66
2021/11/17 08:00:59;;;;;;;18.67;14.00;;;;;;;10.19;60.21;98378.56;8287461;28;20244;-66
2021/11/17 08:05:06;;;;;;;16.70;14.97;;;;;;;10.07;59.90;98378.97;8291764;28;20267;-66
2021/11/17 08:09:10;;;;;;;16.87;15.17;;;;;;;10.22;59.66;98393.97;8285580;28;20221;-66
2021/11/17 08:13:13;;;;;;;16.43;14.73;;;;;;;10.30;59.67;98402.34;8300216;28;20520;-66
2021/11/17 08:17:16;;;;;;;17.50;15.60;;;;;;;10.36;59.58;98399.53;8301920;28;20575;-66
2021/11/17 08:21:20;;;;;;;19.30;16.47;;;;;;;10.23;59.75;98406.00;8292340;28;20236;-66
2021/11/17 08:25:26;;;;;;;17.20;15.40;;;;;;;10.19;59.94;98399.25;8284585;28;20268;-66
2021/11/17 08:29:29;;;;;;;17.13;15.40;;;;;;;10.36;59.11;98401.28;8296387;28;20238;-68
2021/11/17 08:33:32;;;;;;;17.63;15.47;;;;;;;10.36;59.23;98396.94;8296589;28;20240;-66
2021/11/17 08:37:37;;;;;;;18.87;15.83;;;;;;;10.39;59.18;98402.91;8291539;28;20244;-66
2021/11/17 08:41:40;;;;;;;17.93;16.07;;;;;;;10.40;59.00;98402.84;8301381;28;20427;-66
2021/11/17 08:45:43;;;;;;;17.70;15.93;;;;;;;10.44;59.07;98406.19;8300815;28;20268;-66
2021/11/17 08:49:47;;;;;;;18.27;16.10;;;;;;;10.47;58.61;98400.88;8285769;28;20237;-67
2021/11/17 08:53:51;;;;;;;18.13;15.20;;;;;;;10.44;59.07;98411.34;8285691;28;20237;-66
2021/11/17 08:57:55;;;;;;;18.50;16.70;;;;;;;10.33;58.91;98417.75;8285401;28;20248;-66
2021/11/17 09:01:58;;;;;;;18.00;15.73;;;;;;;10.24;58.74;98415.44;8284972;28;20240;-66
2021/11/17 09:06:03;;;;;;;18.17;16.37;;;;;;;10.33;58.91;98397.03;8285367;28;20233;-66
2021/11/17 09:10:09;;;;;;;22.00;16.43;;;;;;;10.53;59.10;98405.84;8284187;28;20240;-66
2021/11/17 09:14:12;;;;;;;17.10;15.30;;;;;;;10.39;59.01;98408.91;8284529;28;20252;-66
2021/11/17 09:18:22;;;;;;;15.97;14.07;;;;;;;10.22;58.69;98414.66;8284958;28;20268;-67
2021/11/17 09:22:26;;;;;;;17.17;14.63;;;;;;;10.24;59.12;98417.22;8284697;28;20229;-66
2021/11/17 09:26:30;;;;;;;16.20;14.50;;;;;;;10.30;60.05;98422.16;8284909;28;20405;-66
2021/11/17 09:30:35;;;;;;;17.13;14.27;;;;;;;10.19;59.76;98432.91;8284623;28;20415;-66
2021/11/17 09:34:38;;;;;;;17.07;14.13;;;;;;;10.17;59.60;98432.97;8290907;28;20230;-66
2021/11/17 09:38:42;;;;;;;16.60;14.83;;;;;;;10.25;59.73;98429.25;8316127;28;20233;-66
2021/11/17 09:42:46;;;;;;;14.60;11.73;;;;;;;12.39;65.79;98426.81;8317488;28;20430;-70
2021/11/17 09:46:50;;;;;;;16.07;10.83;;;;;;;13.02;57.13;98425.72;8287651;28;20241;-59
2021/11/17 09:50:57;;;;;;;14.00;11.33;;;;;;;13.18;53.52;98437.09;8283512;28;20236;-60
2021/11/17 09:55:11;;;;;;;16.17;12.97;;;;;;;12.05;53.98;98437.84;8286670;28;20542;-61
2021/11/17 09:59:20;;;;;;;15.30;13.67;;;;;;;11.40;56.15;98435.28;8295181;28;20226;-62
2021/11/17 10:03:27;;;;;;;16.67;14.00;;;;;;;11.20;56.93;98441.28;8315801;28;20252;-60
2021/11/17 10:16:21;;;;;;;15.93;14.10;;;;;;;10.75;58.31;98431.75;8282773;28;20490;-61
2021/11/17 10:20:31;;;;;;;14.70;13.13;;;;;;;10.69;57.98;98438.03;8282973;28;20542;-61
2021/11/17 10:24:47;;;;;;;15.60;13.23;;;;;;;10.65;58.76;98438.19;8282815;28;20240;-61
2021/11/17 10:28:53;;;;;;;16.40;14.07;;;;;;;10.62;58.86;98446.06;8282470;28;20233;-62
2021/11/17 10:33:08;;;;;;;16.10;13.93;;;;;;;10.43;58.46;98433.78;8282529;28;20424;-63
2021/11/17 10:37:14;;;;;;;15.60;14.03;;;;;;;10.36;59.08;98432.34;8282281;28;20230;-63
2021/11/17 10:41:21;;;;;;;14.10;12.63;;;;;;;10.40;59.23;98435.69;8282509;28;20427;-62
2021/11/17 10:45:29;;;;;;;14.33;12.80;;;;;;;10.34;58.95;98436.75;8282177;28;20279;-62
2021/11/17 10:49:35;;;;;;;15.27;13.73;;;;;;;10.22;59.28;98452.66;8281497;28;20241;-62
2021/11/17 10:53:38;;;;;;;15.03;13.43;;;;;;;10.28;59.67;98440.34;8281792;28;20233;-62
2021/11/17 10:57:41;;;;;;;14.97;13.37;;;;;;;10.43;59.60;98438.13;8282144;28;20325;-65
2021/11/17 11:01:46;;;;;;;15.53;13.93;;;;;;;10.37;59.62;98434.84;8282137;28;20424;-65
2021/11/17 11:06:08;;;;;;;15.23;13.07;;;;;;;10.47;59.36;98435.41;8281687;28;20264;-65
2021/11/17 11:10:23;;;;;;;14.20;12.70;;;;;;;10.40;59.21;98439.09;8282319;28;20236;-65
2021/11/17 11:14:28;;;;;;;14.87;13.37;;;;;;;10.47;58.98;98431.94;8297411;28;20244;-65
2021/11/17 11:18:44;;;;;;;15.10;13.50;;;;;;;10.52;58.95;98437.81;8295201;28;20240;-65
2021/11/17 11:23:15;;;;;;;13.70;11.80;;;;;;;10.50;58.77;98434.44;8297255;28;20244;-65
2021/11/17 11:27:22;;;;;;;15.20;12.83;;;;;;;10.44;59.38;98435.50;8291580;28;20241;-62
2021/11/17 11:31:37;;;;;;;13.80;12.40;;;;;;;10.17;59.58;98447.66;8294415;28;20240;-62
2021/11/17 11:35:40;;;;;;;12.30;10.50;;;;;;;10.07;58.85;98447.13;8290532;28;20232;-62
2021/11/17 11:39:47;;;;;;;12.60;10.87;;;;;;;10.04;58.80;98444.63;8294537;28;20236;-62
2021/11/17 11:44:26;;;;;;;11.20;9.87;;;;;;;9.79;59.00;98454.97;8302797;28;20233;-62
2021/11/17 11:49:05;;;;;;;10.43;9.40;;;;;;;9.73;59.13;98458.63;8309234;28;20229;-61
2021/11/17 11:53:11;;;;;;;15.07;11.83;;;;;;;9.88;58.67;98451.22;8301755;28;20563;-63
2021/11/17 11:57:40;;;;;;;11.43;9.97;;;;;;;10.08;57.92;98453.16;8310695;28;20226;-62
2021/11/17 12:01:43;;;;;;;11.67;10.57;;;;;;;10.14;58.18;98453.75;8298265;28;20425;-62
2021/11/17 12:06:01;;;;;;;12.10;10.90;;;;;;;10.12;57.87;98460.72;8289329;28;20232;-62
2021/11/17 12:10:11;;;;;;;12.03;10.73;;;;;;;10.12;58.11;98454.72;8296425;28;20226;-63
2021/11/17 12:14:36;;;;;;;13.37;11.97;;;;;;;10.23;57.60;98464.72;8304086;28;20501;-63
2021/11/17 12:18:47;;;;;;;14.47;12.30;;;;;;;10.20;57.36;98460.47;8318874;28;20242;-62
2021/11/17 12:22:53;;;;;;;12.40;11.10;;;;;;;10.17;57.52;98465.78;8300022;28;20227;-62
2021/11/17 12:27:03;;;;;;;10.40;9.40;;;;;;;9.92;57.33;98465.78;8286481;28;20425;-63
2021/11/17 12:31:09;;;;;;;8.90;8.10;;;;;;;10.08;57.34;98468.66;8285993;28;20233;-64
2021/11/17 12:35:22;;;;;;;9.63;8.63;;;;;;;10.05;57.52;98469.63;8286196;28;20233;-63
2021/11/17 12:39:28;;;;;;;10.03;8.53;;;;;;;10.08;57.58;98468.66;8286064;28;20554;-63
2021/11/17 12:43:36;;;;;;;9.70;8.37;;;;;;;9.70;58.37;98466.47;8304720;28;20237;-64
2021/11/17 12:47:45;;;;;;;8.97;8.07;;;;;;;10.09;57.23;98466.03;8291766;28;20245;-64
2021/11/17 12:51:53;;;;;;;8.63;7.83;;;;;;;10.01;57.93;98462.00;8285953;28;20245;-63
2021/11/17 12:55:59;;;;;;;8.90;7.53;;;;;;;9.89;57.87;98464.09;8286140;28;20248;-64
2021/11/17 13:00:51;;;;;;;9.70;8.17;;;;;;;10.01;57.93;98464.59;8285481;28;20449;-63
2021/11/17 13:04:56;;;;;;;9.33;8.00;;;;;;;10.00;57.55;98466.34;8285618;28;20519;-64
2021/11/17 13:09:09;;;;;;;8.77;7.53;;;;;;;10.02;57.57;98466.31;8310814;28;20423;-64
2021/11/17 13:13:16;;;;;;;8.90;8.10;;;;;;;9.97;57.98;98456.94;8316704;28;20237;-63
2021/11/17 13:17:22;;;;;;;8.83;8.03;;;;;;;10.08;58.24;98461.75;8317229;28;20232;-64
2021/11/17 13:21:32;;;;;;;10.40;8.17;;;;;;;10.23;58.15;98468.13;8315559;28;20249;-64
2021/11/17 13:25:50;;;;;;;17.03;15.13;;;;;;;10.03;58.83;98467.97;8297298;28;20232;-64
2021/11/17 13:29:56;;;;;;;11.57;8.77;;;;;;;10.13;58.44;98475.38;8288577;28;20296;-63
2021/11/17 13:34:02;;;;;;;8.40;7.60;;;;;;;10.12;59.18;98467.66;8299917;28;20236;-64
2021/11/17 13:38:11;;;;;;;8.53;7.63;;;;;;;10.18;58.86;98485.56;8293848;28;20241;-65
2021/11/17 13:42:14;;;;;;;8.40;7.60;;;;;;;9.76;59.47;98488.69;8284088;28;20325;-65
2021/11/17 13:46:20;;;;;;;9.13;7.10;;;;;;;10.03;58.97;98478.31;8283928;28;20243;-64
2021/11/17 13:50:28;;;;;;;8.33;7.53;;;;;;;9.92;59.25;98486.47;8283688;28;20255;-64
2021/11/17 13:54:31;;;;;;;8.83;7.73;;;;;;;9.81;59.32;98494.56;8284087;28;20524;-63
2021/11/17 13:58:35;;;;;;;9.00;8.10;;;;;;;9.73;59.54;98489.66;8283604;28;20240;-64
2021/11/17 14:02:38;;;;;;;9.13;7.47;;;;;;;9.74;59.50;98498.25;8283820;28;20555;-64
2021/11/17 14:06:43;;;;;;;8.70;7.80;;;;;;;9.43;59.57;98500.97;8298578;28;20240;-64
2021/11/17 14:10:51;;;;;;;7.50;6.77;;;;;;;9.87;59.73;98507.31;8315596;28;20531;-64
2021/11/17 14:14:54;;;;;;;9.67;7.73;;;;;;;10.02;59.00;98510.28;8315909;28;20238;-64
2021/11/17 14:18:57;;;;;;;10.07;7.73;;;;;;;9.95;59.38;98500.13;8315995;28;20438;-63
2021/11/17 14:23:02;;;;;;;9.53;8.60;;;;;;;9.96;59.10;98501.81;8315263;28;20233;-63
2021/11/17 14:27:07;;;;;;;9.57;8.57;;;;;;;9.85;59.82;98516.00;8315177;28;20393;-64
2021/11/17 14:31:12;;;;;;;9.17;8.27;;;;;;;9.79;59.66;98515.31;8315781;28;20259;-67
2021/11/17 14:35:16;;;;;;;11.70;9.60;;;;;;;9.78;59.50;98517.94;8315646;28;20459;-68
2021/11/17 14:39:22;;;;;;;14.23;10.73;;;;;;;9.94;59.20;98518.31;8315322;28;20237;-68
2021/11/17 14:43:25;;;;;;;9.43;8.23;;;;;;;9.82;58.60;98516.09;8315244;28;20229;-68
2021/11/17 14:47:28;;;;;;;7.57;6.80;;;;;;;9.75;58.55;98518.06;8290121;28;20230;-67
2021/11/17 14:51:31;;;;;;;7.80;7.00;;;;;;;9.76;58.67;98517.16;8282696;28;20255;-68
2021/11/17 14:55:35;;;;;;;7.00;6.30;;;;;;;9.59;59.05;98513.38;8282434;28;20235;-68
2021/11/17 14:59:38;;;;;;;6.83;6.17;;;;;;;9.59;58.39;98513.38;8282867;28;20452;-67
2021/11/17 15:03:42;;;;;;;7.10;6.33;;;;;;;9.77;58.44;98524.03;8282665;28;20433;-67
2021/11/17 15:07:45;;;;;;;7.57;6.73;;;;;;;9.82;58.49;98521.28;8282090;28;20578;-68
2021/11/17 15:11:52;;;;;;;8.87;6.77;;;;;;;9.88;58.30;98513.31;8281663;28;20245;-66
2021/11/17 15:15:58;;;;;;;7.27;6.57;;;;;;;9.75;57.84;98521.47;8281922;28;20555;-62
2021/11/17 15:20:01;;;;;;;7.50;6.70;;;;;;;9.82;57.99;98523.88;8282115;28;20241;-61
2021/11/17 15:24:05;;;;;;;7.87;7.10;;;;;;;9.85;57.70;98540.13;8281400;28;20430;-61
2021/11/17 15:28:13;;;;;;;7.27;6.60;;;;;;;9.86;57.70;98549.59;8280884;28;20288;-62
2021/11/17 15:32:18;;;;;;;7.20;6.30;;;;;;;9.85;57.64;98534.13;8249691;28;20477;-61
2021/11/17 15:36:22;;;;;;;6.67;5.97;;;;;;;9.87;58.01;98546.09;8274207;28;20233;-61
2021/11/17 15:40:28;;;;;;;7.73;6.93;;;;;;;9.76;57.50;98541.25;8287917;28;20229;-61
2021/11/17 15:44:32;;;;;;;7.80;6.50;;;;;;;9.94;57.58;98542.44;8305432;28;20255;-62
2021/11/17 15:48:36;;;;;;;8.47;7.10;;;;;;;9.73;57.33;98546.56;8287764;28;20237;-61
2021/11/17 15:52:40;;;;;;;7.10;6.40;;;;;;;9.83;57.13;98546.25;8287205;28;20434;-61
2021/11/17 15:56:42;;;;;;;7.37;6.77;;;;;;;9.78;57.53;98552.41;8287190;28;20233;-61
2021/11/17 16:00:48;;;;;;;7.23;6.57;;;;;;;9.76;57.85;98553.34;8287459;28;20237;-61
2021/11/17 16:04:51;;;;;;;6.67;6.07;;;;;;;9.76;57.78;98553.34;8292403;28;20239;-61
2021/11/17 16:08:54;;;;;;;10.33;9.33;;;;;;;9.88;57.07;98557.28;8291213;28;20237;-61
2021/11/17 16:12:57;;;;;;;6.83;6.20;;;;;;;9.84;56.53;98553.13;8285786;28;20229;-62
2021/11/17 16:17:02;;;;;;;7.27;6.53;;;;;;;9.55;56.83;98531.59;8285917;28;20414;-61
2021/11/17 16:21:06;;;;;;;7.73;6.40;;;;;;;9.76;56.64;98551.59;8301812;28;20519;-61
2021/11/17 16:29:33;;;;;;;21.07;15.73;;;;;;;9.65;56.52;98597.66;8268890;28;20233;-61
2021/11/17 16:33:37;;;;;;;8.97;8.00;;;;;;;9.53;57.02;98605.78;8286183;28;20233;-61
2021/11/17 16:37:40;;;;;;;9.20;8.30;;;;;;;9.64;57.38;98608.91;8286383;28;20237;-66
2021/11/17 16:41:44;;;;;;;9.27;8.23;;;;;;;9.53;57.62;98609.22;8285995;28;20540;-66
2021/11/17 16:45:48;;;;;;;9.27;8.13;;;;;;;9.63;57.47;98606.34;8285709;28;20241;-66
2021/11/17 16:49:53;;;;;;;6.77;6.17;;;;;;;9.67;57.29;98603.66;8289996;28;20232;-66
2021/11/17 16:53:56;;;;;;;11.10;9.90;;;;;;;9.70;56.94;98608.72;8318332;28;20604;-66
2021/11/17 16:57:59;;;;;;;10.13;9.03;;;;;;;9.63;57.20;98621.88;8310103;28;20232;-66
2021/11/17 17:02:02;;;;;;;11.23;8.80;;;;;;;9.61;57.52;98636.59;8284477;28;20244;-66
2021/11/17 17:06:09;;;;;;;10.07;8.50;;;;;;;9.70;57.23;98641.50;8291106;28;20296;-66
2021/11/17 17:10:14;;;;;;;8.80;7.90;;;;;;;9.72;57.47;98642.28;8297962;28;20232;-66
2021/11/17 17:14:20;;;;;;;12.80;11.40;;;;;;;9.76;57.07;98643.88;8284807;28;20439;-66
2021/11/17 17:18:24;;;;;;;11.67;10.47;;;;;;;9.72;57.13;98647.47;8285042;28;20607;-66
2021/11/17 17:22:31;;;;;;;9.20;8.20;;;;;;;9.74;56.76;98649.09;8285084;28;20237;-65
2021/11/17 17:26:35;;;;;;;9.70;8.67;;;;;;;9.53;57.44;98658.34;8285047;28;20240;-69
2021/11/17 17:30:39;;;;;;;10.07;9.07;;;;;;;9.61;57.53;98655.53;8283996;28;20244;-68
2021/11/17 17:34:43;;;;;;;14.40;12.73;;;;;;;9.58;57.69;98658.22;8285461;28;20235;-68
2021/11/17 17:38:52;;;;;;;9.90;8.67;;;;;;;9.64;57.45;98658.03;8284879;28;20237;-68
2021/11/17 17:42:56;;;;;;;7.33;6.60;;;;;;;9.65;57.17;98653.72;8284520;28;20375;-68
2021/11/17 17:46:59;;;;;;;8.93;7.03;;;;;;;9.72;57.18;98660.41;8284552;28;20233;-68
2021/11/17 17:51:03;;;;;;;9.57;7.70;;;;;;;9.70;56.81;98663.03;8297200;28;20236;-68
2021/11/17 17:55:09;;;;;;;9.87;8.87;;;;;;;9.70;57.00;98660.44;8284438;28;20233;-68
2021/11/17 17:59:12;;;;;;;9.23;7.67;;;;;;;9.74;56.70;98668.97;8284055;28;20240;-68
2021/11/17 18:03:17;;;;;;;8.30;7.40;;;;;;;9.68;57.05;98676.91;8283841;28;20467;-69
2021/11/17 18:07:20;;;;;;;6.40;5.80;;;;;;;9.79;56.46;98686.03;8284125;28;20234;-68
2021/11/17 18:11:24;;;;;;;12.63;5.80;;;;;;;10.68;72.74;98689.34;8283051;28;20287;-77
2021/11/17 18:15:27;;;;;;;9.30;5.53;;;;;;;12.47;64.06;98689.72;8283221;28;20429;-78
2021/11/17 18:19:30;;;;;;;5.97;5.37;;;;;;;12.96;52.00;98698.97;8282573;28;20235;-75
2021/11/17 18:23:33;;;;;;;6.10;5.53;;;;;;;13.11;49.57;98706.13;8282788;28;20238;-77
2021/11/17 18:27:40;;;;;;;5.23;4.73;;;;;;;13.33;50.10;98713.88;8282565;28;20966;-76
2021/11/17 18:31:43;;;;;;;6.73;4.90;;;;;;;13.10;49.68;98720.88;8282553;28;20237;-76
2021/11/17 18:35:50;;;;;;;7.37;5.23;;;;;;;11.92;50.38;98730.81;8282978;28;20544;-68
2021/11/17 18:39:53;;;;;;;6.85;6.22;;;;;;;11.87;50.07;98738.72;8281330;28;20419;-68
2021/11/17 18:43:57;;;;;;;10.17;6.83;;;;;;;11.12;52.27;98741.44;8282800;28;20234;-69
2021/11/17 18:48:03;;;;;;;9.80;7.07;;;;;;;10.86;53.11;98750.91;8282738;28;20234;-68
2021/11/17 18:52:07;;;;;;;9.80;8.00;;;;;;;10.75;53.20;98746.06;8282151;28;20395;-69
2021/11/17 18:56:11;;;;;;;7.87;7.07;;;;;;;10.68;53.64;98757.56;8282202;28;20233;-69
2021/11/17 19:00:20;;;;;;;7.10;6.40;;;;;;;10.61;53.55;98761.22;8282122;28;20237;-69
2021/11/17 19:04:23;;;;;;;13.97;10.30;;;;;;;10.47;54.46;98760.81;8281930;28;20241;-69
2021/11/17 19:08:29;;;;;;;15.20;12.70;;;;;;;10.40;54.23;98769.69;8302675;28;20236;-69
2021/11/17 19:12:31;;;;;;;23.57;19.53;;;;;;;10.34;54.52;98779.31;8308581;28;20237;-69
2021/11/17 19:16:34;;;;;;;15.20;12.00;;;;;;;10.27;55.35;98788.13;8303606;28;20571;-68
2021/11/17 19:20:39;;;;;;;10.60;9.17;;;;;;;10.25;54.97;98782.16;8288881;28;20236;-68
2021/11/17 19:24:42;;;;;;;10.23;7.60;;;;;;;10.20;55.57;98786.59;8298345;28;20433;-68
2021/11/17 19:28:45;;;;;;;7.10;6.40;;;;;;;10.16;55.36;98778.09;8287194;28;20528;-68
2021/11/17 19:32:49;;;;;;;10.03;7.83;;;;;;;10.18;55.52;98786.69;8303639;28;20225;-68
2021/11/17 19:36:53;;;;;;;12.07;10.63;;;;;;;10.12;55.52;98786.84;8303430;28;20531;-68
2021/11/17 19:40:58;;;;;;;9.33;8.33;;;;;;;10.12;56.00;98792.00;8303125;28;20228;-68
2021/11/17 19:45:02;;;;;;;12.30;11.00;;;;;;;10.14;56.25;98804.91;8286639;28;20229;-68
2021/11/17 19:49:07;;;;;;;12.30;11.03;;;;;;;10.17;56.03;98810.00;8294831;28;20226;-69
2021/11/17 19:53:12;;;;;;;15.13;11.67;;;;;;;10.06;56.29;98806.88;8286965;28;20248;-69
2021/11/17 19:57:15;;;;;;;12.13;10.67;;;;;;;10.10;56.41;98816.25;8295450;28;20235;-69
2021/11/17 20:01:18;;;;;;;9.70;8.70;;;;;;;10.13;56.76;98826.53;8302897;28;20229;-68
2021/11/17 20:05:22;;;;;;;10.20;9.20;;;;;;;10.11;56.69;98823.09;8300065;28;20229;-69
2021/11/17 20:09:30;;;;;;;11.80;10.13;;;;;;;10.07;56.57;98829.28;8302356;28;20232;-69
2021/11/17 20:13:36;;;;;;;10.80;9.70;;;;;;;10.03;57.26;98823.31;8302141;28;20236;-68
2021/11/17 20:17:39;;;;;;;12.67;11.00;;;;;;;10.00;57.23;98841.56;8296949;28;20247;-67
2021/11/17 20:21:43;;;;;;;13.67;12.20;;;;;;;10.05;57.28;98839.69;8300597;28;20288;-67
2021/11/17 20:25:48;;;;;;;14.67;11.60;;;;;;;9.97;57.23;98850.22;8302046;28;20225;-68
2021/11/17 20:29:52;;;;;;;12.40;9.77;;;;;;;10.05;56.86;98849.16;8301549;28;20259;-70
2021/11/17 20:33:55;;;;;;;11.17;9.63;;;;;;;10.07;56.90;98852.56;8293512;28;20252;-68
2021/11/17 20:37:58;;;;;;;11.30;10.10;;;;;;;9.98;57.00;98856.28;8287927;28;20239;-69
2021/11/17 20:42:02;;;;;;;12.20;10.50;;;;;;;9.89;57.39;98859.94;8293971;28;20316;-69
2021/11/17 20:46:05;;;;;;;12.50;10.23;;;;;;;9.93;57.65;98865.88;8301584;28;20217;-68
2021/11/17 20:50:10;;;;;;;11.07;9.97;;;;;;;10.02;57.76;98877.75;8285320;28;20415;-68
2021/11/17 20:54:13;;;;;;;16.17;13.03;;;;;;;10.04;57.58;98873.38;8285029;28;20433;-68
2021/11/17 20:58:18;;;;;;;11.17;9.70;;;;;;;10.00;57.18;98867.44;8285027;28;20240;-69
2021/11/17 21:02:21;;;;;;;10.17;9.17;;;;;;;9.95;57.27;98870.13;8284859;28;20237;-68
2021/11/17 21:06:24;;;;;;;11.93;10.20;;;;;;;9.98;57.36;98871.81;8287324;28;20241;-67
2021/11/17 21:10:27;;;;;;;11.47;10.30;;;;;;;10.06;57.64;98871.59;8290031;28;20239;-67
2021/11/17 21:14:33;;;;;;;12.50;11.20;;;;;;;9.97;58.04;98870.09;8300307;28;20679;-68
2021/11/17 21:18:36;;;;;;;12.67;10.80;;;;;;;10.08;57.07;98873.22;8298282;28;20232;-69
2021/11/17 21:22:40;;;;;;;11.37;10.00;;;;;;;10.04;57.45;98881.97;8295058;28;20243;-68
2021/11/17 21:26:43;;;;;;;11.60;10.07;;;;;;;10.08;57.24;98877.56;8284613;28;20544;-67
2021/11/17 21:30:47;;;;;;;10.83;9.83;;;;;;;10.05;57.83;98875.91;8284319;28;20236;-67
2021/11/17 21:34:51;;;;;;;11.70;9.77;;;;;;;10.11;57.42;98878.34;8283797;28;20268;-68
2021/11/17 21:38:53;;;;;;;12.27;9.33;;;;;;;10.04;57.55;98875.97;8284309;28;20590;-67
2021/11/17 21:42:57;;;;;;;11.97;10.17;;;;;;;9.74;59.16;98878.47;8284269;28;20247;-68
2021/11/17 21:47:01;;;;;;;11.53;9.87;;;;;;;9.57;59.64;98879.75;8283836;28;20434;-68
2021/11/17 21:51:05;;;;;;;11.13;9.90;;;;;;;9.70;59.21;98879.44;8283715;28;20229;-67
2021/11/17 21:55:10;;;;;;;12.90;10.60;;;;;;;9.69;59.64;98880.31;8283514;28;20248;-69